createdAt,value
2022-12-03T00:02:10.375Z,8.48
2022-12-03T00:04:38.879Z,8.52
2022-12-03T00:07:10.526Z,8.56
2022-12-03T00:09:41.274Z,8.57
2022-12-03T00:12:11.279Z,8.55
2022-12-03T00:14:44.377Z,8.48
2022-12-03T00:17:15.445Z,8.44
2022-12-03T00:19:47.048Z,8.42
2022-12-03T00:22:18.821Z,8.37
2022-12-03T00:24:52.190Z,8.40
2022-12-03T00:27:21.328Z,8.40
2022-12-03T00:29:50.109Z,8.40
2022-12-03T00:32:22.704Z,8.41
2022-12-03T00:35:25.012Z,8.43
2022-12-03T00:37:55.148Z,8.47
2022-12-03T00:40:23.355Z,8.49
2022-12-03T00:43:03.088Z,8.47
2022-12-03T00:45:31.858Z,8.46
2022-12-03T00:48:12.469Z,8.47
2022-12-03T00:50:41.066Z,8.45
2022-12-03T00:53:09.683Z,8.43
2022-12-03T00:55:38.766Z,8.46
2022-12-03T00:58:08.743Z,8.46
2022-12-03T01:00:42.331Z,8.43
2022-12-03T01:03:12.568Z,8.43
2022-12-03T01:05:41.922Z,8.44
2022-12-03T01:08:10.832Z,8.44
2022-12-03T01:10:39.554Z,8.43
2022-12-03T01:13:11.117Z,8.44
2022-12-03T01:15:40.970Z,8.43
2022-12-03T01:18:09.799Z,8.45
2022-12-03T01:20:39.718Z,8.43
2022-12-03T01:23:09.713Z,8.44
2022-12-03T01:25:38.738Z,8.44
2022-12-03T01:28:09.929Z,8.43
2022-12-03T01:31:04.556Z,8.40
2022-12-03T01:33:32.296Z,8.41
2022-12-03T01:36:08.921Z,8.36
2022-12-03T01:38:39.055Z,8.39
2022-12-03T01:41:11.650Z,8.41
2022-12-03T01:43:51.860Z,8.40
2022-12-03T01:46:27.952Z,8.38
2022-12-03T01:48:58.242Z,8.37
2022-12-03T01:51:29.887Z,8.36
2022-12-03T01:54:11.636Z,8.34
2022-12-03T01:56:40.536Z,8.33
2022-12-03T01:59:09.343Z,8.33
2022-12-03T02:01:41.980Z,8.33
2022-12-03T02:04:16.387Z,8.31
2022-12-03T02:06:49.341Z,8.32
2022-12-03T02:09:22.265Z,8.32
2022-12-03T02:12:16.776Z,8.30
2022-12-03T02:14:46.182Z,8.29
2022-12-03T02:17:35.349Z,8.25
2022-12-03T02:20:10.962Z,8.25
2022-12-03T02:22:55.042Z,8.26
2022-12-03T02:25:32.526Z,8.24
2022-12-03T02:28:06.841Z,8.23
2022-12-03T02:30:43.502Z,8.24
2022-12-03T02:33:12.171Z,8.19
2022-12-03T02:35:41.517Z,8.16
2022-12-03T02:38:15.621Z,8.11
2022-12-03T02:40:48.380Z,8.05
2022-12-03T02:43:21.628Z,8.03
2022-12-03T02:45:53.506Z,7.99
2022-12-03T02:48:41.713Z,7.95
2022-12-03T02:51:12.901Z,7.86
2022-12-03T02:53:46.596Z,7.76
2022-12-03T02:56:23.292Z,7.68
2022-12-03T02:58:55.920Z,7.61
2022-12-03T03:01:35.713Z,7.49
2022-12-03T03:04:08.277Z,7.45
2022-12-03T03:06:38.794Z,7.35
2022-12-03T03:09:11.246Z,7.31
2022-12-03T03:11:41.876Z,7.27
2022-12-03T03:14:11.112Z,7.22
2022-12-03T03:16:40.293Z,7.20
2022-12-03T03:19:09.751Z,7.19
2022-12-03T03:21:39.486Z,7.21
2022-12-03T03:24:11.954Z,7.20
2022-12-03T03:26:53.962Z,7.21
2022-12-03T03:29:23.713Z,7.23
2022-12-03T03:32:07.004Z,7.24
2022-12-03T03:34:38.658Z,7.27
2022-12-03T03:37:10.511Z,7.23
2022-12-03T03:39:42.039Z,7.21
2022-12-03T03:42:13.406Z,7.23
2022-12-03T03:44:43.110Z,7.22
2022-12-03T03:47:14.592Z,7.17
2022-12-03T03:49:44.021Z,7.14
2022-12-03T03:52:13.886Z,7.04
2022-12-03T03:54:46.497Z,6.98
2022-12-03T03:57:18.521Z,6.90
2022-12-03T03:59:47.642Z,6.88
2022-12-03T04:02:21.530Z,6.91
2022-12-03T04:04:54.235Z,6.95
2022-12-03T04:07:23.308Z,7.02
2022-12-03T04:09:52.013Z,7.10
2022-12-03T04:12:39.444Z,7.13
2022-12-03T04:15:10.058Z,7.24
2022-12-03T04:17:45.962Z,7.31
2022-12-03T04:20:15.930Z,7.34
2022-12-03T04:22:51.907Z,7.38
2022-12-03T04:25:38.265Z,7.42
2022-12-03T04:28:27.770Z,7.44
2022-12-03T04:31:03.875Z,7.47
2022-12-03T04:33:50.199Z,7.48
2022-12-03T04:36:19.450Z,7.55
2022-12-03T04:38:54.826Z,7.57
2022-12-03T04:41:40.537Z,7.62
2022-12-03T04:47:51.821Z,7.65
2022-12-03T04:50:19.968Z,7.64
2022-12-03T04:52:50.925Z,7.64
2022-12-03T04:55:19.074Z,7.63
2022-12-03T04:57:47.138Z,7.57
2022-12-03T05:00:16.383Z,7.55
2022-12-03T05:02:44.580Z,7.53
2022-12-03T05:05:14.214Z,7.55
2022-12-03T05:07:42.842Z,7.57
2022-12-03T05:10:11.920Z,7.54
2022-12-03T05:12:40.217Z,7.52
2022-12-03T05:15:09.284Z,7.56
2022-12-03T05:17:37.537Z,7.54
2022-12-03T05:20:24.587Z,7.54
2022-12-03T05:22:54.228Z,7.59
2022-12-03T05:25:23.121Z,7.58
2022-12-03T05:27:51.406Z,7.60
2022-12-03T05:30:19.637Z,7.59
2022-12-03T05:32:47.827Z,7.58
2022-12-03T05:35:16.094Z,7.62
2022-12-03T05:37:44.822Z,7.62
2022-12-03T05:40:15.655Z,7.60
2022-12-03T05:42:55.817Z,7.61
2022-12-03T05:45:24.556Z,7.63
2022-12-03T05:47:53.455Z,7.62
2022-12-03T05:50:22.232Z,7.60
2022-12-03T05:52:50.386Z,7.59
2022-12-03T05:55:21.075Z,7.58
2022-12-03T05:57:53.657Z,7.60
2022-12-03T06:00:23.988Z,7.60
2022-12-03T06:02:52.281Z,7.55
2022-12-03T06:05:24.500Z,7.58
2022-12-03T06:07:53.935Z,7.54
2022-12-03T06:10:26.294Z,7.57
2022-12-03T06:12:54.932Z,7.57
2022-12-03T06:15:23.258Z,7.58
2022-12-03T06:17:51.461Z,7.59
2022-12-03T06:20:21.906Z,7.56
2022-12-03T06:22:50.810Z,7.57
2022-12-03T06:25:19.497Z,7.55
2022-12-03T06:27:49.586Z,7.56
2022-12-03T06:30:17.633Z,7.60
2022-12-03T06:32:46.115Z,7.60
2022-12-03T06:35:14.332Z,7.59
2022-12-03T06:37:42.566Z,7.59
2022-12-03T06:40:11.743Z,7.60
2022-12-03T06:42:39.994Z,7.61
2022-12-03T06:45:10.427Z,7.61
2022-12-03T06:47:38.736Z,7.62
2022-12-03T06:50:08.858Z,7.65
2022-12-03T06:52:36.828Z,7.67
2022-12-03T06:55:05.389Z,7.63
2022-12-03T06:57:33.639Z,7.64
2022-12-03T07:00:02.377Z,7.63
2022-12-03T07:02:31.983Z,7.63
2022-12-03T07:05:00.136Z,7.62
2022-12-03T07:07:29.015Z,7.62
2022-12-03T07:09:57.339Z,7.62
2022-12-03T07:12:25.423Z,7.63
2022-12-03T07:14:54.020Z,7.61
2022-12-03T07:17:27.025Z,7.61
2022-12-03T07:19:56.845Z,7.60
2022-12-03T07:22:24.926Z,7.60
2022-12-03T07:24:55.863Z,7.59
2022-12-03T07:27:24.627Z,7.59
2022-12-03T07:29:52.924Z,7.58
2022-12-03T07:32:21.073Z,7.58
2022-12-03T07:34:49.229Z,7.58
2022-12-03T07:37:22.875Z,7.57
2022-12-03T07:39:52.487Z,7.57
2022-12-03T07:42:20.651Z,7.57
2022-12-03T07:44:48.807Z,7.54
2022-12-03T07:47:20.337Z,7.57
2022-12-03T07:49:48.422Z,7.54
2022-12-03T07:52:16.541Z,7.57
2022-12-03T07:54:46.207Z,7.53
2022-12-03T07:57:17.442Z,7.54
2022-12-03T07:59:45.819Z,7.53
2022-12-03T08:02:19.609Z,7.53
2022-12-03T08:04:49.599Z,7.52
2022-12-03T08:07:17.709Z,7.53
2022-12-03T08:09:47.307Z,7.52
2022-12-03T08:12:18.339Z,7.51
2022-12-03T08:14:46.529Z,7.51
2022-12-03T08:17:17.980Z,7.53
2022-12-03T08:19:48.274Z,7.52
2022-12-03T08:22:17.771Z,7.52
2022-12-03T08:24:47.342Z,7.52
2022-12-03T08:27:18.867Z,7.49
2022-12-03T08:29:47.377Z,7.48
2022-12-03T08:32:15.531Z,7.49
2022-12-03T08:34:45.281Z,7.51
2022-12-03T08:37:17.774Z,7.52
2022-12-03T08:39:49.566Z,7.53
2022-12-03T08:42:40.613Z,7.50
2022-12-03T08:45:40.059Z,7.53
2022-12-03T08:48:32.704Z,7.53
2022-12-03T08:51:14.305Z,7.52
2022-12-03T08:53:48.045Z,7.53
2022-12-03T08:56:25.706Z,7.56
2022-12-03T08:58:56.911Z,7.58
2022-12-03T09:01:42.879Z,7.59
2022-12-03T09:04:23.939Z,7.61
2022-12-03T09:06:58.027Z,7.66
2022-12-03T09:09:29.357Z,7.67
2022-12-03T09:11:58.920Z,7.71
2022-12-03T09:14:27.156Z,7.73
2022-12-03T09:16:56.458Z,7.69
2022-12-03T09:19:25.614Z,7.67
2022-12-03T09:21:57.752Z,7.61
2022-12-03T09:24:26.033Z,7.61
2022-12-03T09:26:54.056Z,7.61
2022-12-03T09:29:23.561Z,7.59
2022-12-03T09:31:51.843Z,7.58
2022-12-03T09:34:20.052Z,7.57
2022-12-03T09:36:48.065Z,7.54
2022-12-03T09:39:16.095Z,7.59
2022-12-03T09:41:44.375Z,7.69
2022-12-03T09:44:17.499Z,7.80
2022-12-03T09:46:49.075Z,8.03
2022-12-03T09:49:19.875Z,8.25
2022-12-03T09:51:49.705Z,8.31
2022-12-03T09:54:24.966Z,8.23
2022-12-03T09:56:53.645Z,8.08
2022-12-03T09:59:23.666Z,7.97
2022-12-03T10:01:53.837Z,7.91
2022-12-03T10:04:26.094Z,7.93
2022-12-03T10:06:54.316Z,7.96
2022-12-03T10:09:27.021Z,7.97
2022-12-03T10:11:56.173Z,7.95
2022-12-03T10:14:24.743Z,7.91
2022-12-03T10:16:54.344Z,7.90
2022-12-03T10:19:25.513Z,7.87
2022-12-03T10:21:53.662Z,7.82
2022-12-03T10:24:25.877Z,7.80
2022-12-03T10:26:56.393Z,7.74
2022-12-03T10:29:32.915Z,7.70
2022-12-03T10:32:04.637Z,7.69
2022-12-03T10:34:34.987Z,7.66
2022-12-03T10:37:15.930Z,7.71
2022-12-03T10:40:01.216Z,7.81
2022-12-03T10:42:31.125Z,7.95
2022-12-03T10:45:13.898Z,8.05
2022-12-03T10:47:44.172Z,8.00
2022-12-03T10:50:20.738Z,7.96
2022-12-03T10:52:48.727Z,8.04
2022-12-03T10:55:17.653Z,8.12
2022-12-03T10:57:46.361Z,8.22
2022-12-03T11:00:18.802Z,8.29
2022-12-03T11:02:56.110Z,8.42
2022-12-03T11:05:28.547Z,8.60
2022-12-03T11:07:57.620Z,8.70
2022-12-03T11:10:26.274Z,8.79
2022-12-03T11:13:29.167Z,8.80
2022-12-03T11:15:58.532Z,8.74
2022-12-03T11:19:08.256Z,8.65
2022-12-03T11:22:18.689Z,8.55
2022-12-03T11:24:46.686Z,8.48
2022-12-03T11:27:20.906Z,8.46
2022-12-03T11:29:57.705Z,8.46
2022-12-03T11:33:06.344Z,8.53
2022-12-03T11:36:07.075Z,8.70
2022-12-03T11:38:53.035Z,8.84
2022-12-03T11:41:27.655Z,8.95
2022-12-03T11:44:29.362Z,9.19
2022-12-03T11:47:00.609Z,9.29
2022-12-03T11:49:36.425Z,9.21
2022-12-03T11:52:20.185Z,9.03
2022-12-03T11:54:54.604Z,8.86
2022-12-03T11:57:38.602Z,8.77
2022-12-03T12:00:14.876Z,8.70
2022-12-03T12:02:43.342Z,8.54
2022-12-03T12:05:23.651Z,8.28
2022-12-03T12:07:51.920Z,8.11
2022-12-03T12:10:44.117Z,8.03
2022-12-03T12:13:44.514Z,7.94
2022-12-03T12:16:12.894Z,7.87
2022-12-03T12:18:42.842Z,7.87
2022-12-03T12:21:47.720Z,7.91
2022-12-03T12:24:38.294Z,8.05
2022-12-03T12:27:10.117Z,8.25
2022-12-03T12:29:39.990Z,8.38
2022-12-03T12:32:15.841Z,8.53
2022-12-03T12:34:45.921Z,8.68
2022-12-03T12:37:18.206Z,8.81
2022-12-03T12:39:46.617Z,8.84
2022-12-03T12:42:30.724Z,8.80
2022-12-03T12:45:02.986Z,8.61
2022-12-03T12:47:32.201Z,8.33
2022-12-03T12:50:00.505Z,8.06
2022-12-03T12:52:29.019Z,7.90
2022-12-03T12:55:01.512Z,7.78
2022-12-03T12:57:35.374Z,7.74
2022-12-03T13:00:05.913Z,7.72
2022-12-03T13:02:46.378Z,7.83
2022-12-03T13:05:15.863Z,8.04
2022-12-03T13:07:44.945Z,8.19
2022-12-03T13:10:38.422Z,8.32
2022-12-03T13:13:31.026Z,8.35
2022-12-03T13:16:04.056Z,8.21
2022-12-03T13:18:36.150Z,7.97
2022-12-03T13:21:15.960Z,7.46
2022-12-03T13:23:43.956Z,7.14
2022-12-03T13:26:32.927Z,6.95
2022-12-03T13:29:12.255Z,6.95
2022-12-03T13:31:44.217Z,7.03
2022-12-03T13:34:15.968Z,7.24
2022-12-03T13:36:45.890Z,7.44
2022-12-03T13:39:20.420Z,7.61
2022-12-03T13:42:06.350Z,7.80
2022-12-03T13:44:42.701Z,7.83
2022-12-03T13:47:18.170Z,8.08
2022-12-03T13:49:52.839Z,8.17
2022-12-03T13:52:23.418Z,8.36
2022-12-03T13:54:54.038Z,8.50
2022-12-03T13:57:22.174Z,8.46
2022-12-03T13:59:52.351Z,8.44
2022-12-03T14:02:21.515Z,8.48
2022-12-03T14:04:49.580Z,8.45
2022-12-03T14:07:18.017Z,8.45
2022-12-03T14:09:46.010Z,8.34
2022-12-03T14:12:33.746Z,8.09
2022-12-03T14:15:03.579Z,7.84
2022-12-03T14:17:34.850Z,7.78
2022-12-03T14:20:03.947Z,7.77
2022-12-03T14:22:32.380Z,7.78
2022-12-03T14:25:00.403Z,7.74
2022-12-03T14:27:30.671Z,7.72
2022-12-03T14:29:58.681Z,7.66
2022-12-03T14:32:28.433Z,7.65
2022-12-03T14:34:56.793Z,7.61
2022-12-03T14:37:24.744Z,7.54
2022-12-03T14:39:55.958Z,7.53
2022-12-03T14:42:24.181Z,7.50
2022-12-03T14:44:52.924Z,7.46
2022-12-03T14:47:25.502Z,7.42
2022-12-03T14:49:55.037Z,7.39
2022-12-03T14:52:23.268Z,7.34
2022-12-03T14:54:51.326Z,7.31
2022-12-03T14:57:19.344Z,7.27
2022-12-03T14:59:48.013Z,7.23
2022-12-03T15:02:16.078Z,7.23
2022-12-03T15:04:44.359Z,7.23
2022-12-03T15:07:13.807Z,7.23
2022-12-03T15:09:41.937Z,7.20
2022-12-03T15:12:09.981Z,7.21
2022-12-03T15:14:38.613Z,7.26
2022-12-03T15:17:06.830Z,7.24
2022-12-03T15:19:35.013Z,7.23
2022-12-03T15:22:03.261Z,7.26
2022-12-03T15:24:32.727Z,7.21
2022-12-03T15:27:00.791Z,7.20
2022-12-03T15:29:28.820Z,7.15
2022-12-03T15:31:59.371Z,7.12
2022-12-03T15:34:27.751Z,7.08
2022-12-03T15:36:55.792Z,7.05
2022-12-03T15:39:23.908Z,7.03
2022-12-03T15:41:53.350Z,7.04
2022-12-03T15:44:21.521Z,7.01
2022-12-03T15:46:49.550Z,6.99
2022-12-03T15:49:17.546Z,6.94
2022-12-03T15:51:45.553Z,6.85
2022-12-03T15:54:13.813Z,6.78
2022-12-03T15:56:41.850Z,6.73
2022-12-03T15:59:11.240Z,6.71
2022-12-03T16:01:39.349Z,6.73
2022-12-03T16:04:08.655Z,6.77
2022-12-03T16:06:36.722Z,6.80
2022-12-03T16:09:04.810Z,6.83
2022-12-03T16:11:34.049Z,6.83
2022-12-03T16:14:02.058Z,6.82
2022-12-03T16:16:31.530Z,6.75
2022-12-03T16:18:59.633Z,6.70
2022-12-03T16:21:27.637Z,6.66
2022-12-03T16:23:55.940Z,6.64
2022-12-03T16:26:24.176Z,6.63
2022-12-03T16:28:52.237Z,6.63
2022-12-03T16:31:20.634Z,6.64
2022-12-03T16:33:50.648Z,6.62
2022-12-03T16:36:18.607Z,6.60
2022-12-03T16:38:46.593Z,6.57
2022-12-03T16:41:14.660Z,6.54
2022-12-03T16:43:45.573Z,6.52
2022-12-03T16:46:26.732Z,6.55
2022-12-03T16:48:58.134Z,6.60
2022-12-03T16:51:27.098Z,6.63
2022-12-03T16:53:55.693Z,6.68
2022-12-03T16:56:23.757Z,6.73
2022-12-03T16:58:51.813Z,6.79
2022-12-03T17:01:20.036Z,6.84
2022-12-03T17:03:48.177Z,6.90
2022-12-03T17:06:18.513Z,6.96
2022-12-03T17:08:49.649Z,6.96
2022-12-03T17:11:19.208Z,6.86
2022-12-03T17:13:47.346Z,6.72
2022-12-03T17:16:17.574Z,6.63
2022-12-03T17:18:45.418Z,6.60
2022-12-03T17:21:13.495Z,6.62
2022-12-03T17:23:43.126Z,6.65
2022-12-03T17:26:11.133Z,6.66
2022-12-03T17:28:39.130Z,6.61
2022-12-03T17:31:07.262Z,6.44
2022-12-03T17:33:35.348Z,6.26
2022-12-03T17:36:03.472Z,6.16
2022-12-03T17:38:37.325Z,6.14
2022-12-03T17:41:08.938Z,6.15
2022-12-03T17:43:36.975Z,6.18
2022-12-03T17:46:06.695Z,6.20
2022-12-03T17:48:35.429Z,6.26
2022-12-03T17:51:03.935Z,6.32
2022-12-03T17:53:31.930Z,6.41
2022-12-03T17:55:59.976Z,6.44
2022-12-03T17:58:29.413Z,6.37
2022-12-03T18:01:02.378Z,6.32
2022-12-03T18:03:31.059Z,6.28
2022-12-03T18:05:59.158Z,6.30
2022-12-03T18:08:27.241Z,6.28
2022-12-03T18:10:56.268Z,6.27
2022-12-03T18:13:24.294Z,6.24
2022-12-03T18:15:53.751Z,6.21
2022-12-03T18:18:21.787Z,6.25
2022-12-03T18:20:49.785Z,6.25
2022-12-03T18:23:17.859Z,6.23
2022-12-03T18:25:45.875Z,6.20
2022-12-03T18:28:15.314Z,6.19
2022-12-03T18:30:47.535Z,6.20
2022-12-03T18:33:21.322Z,6.28
2022-12-03T18:35:49.554Z,6.34
2022-12-03T18:38:19.198Z,6.35
2022-12-03T18:40:48.629Z,6.33
2022-12-03T18:43:18.693Z,6.08
2022-12-03T18:45:46.685Z,5.88
2022-12-03T18:48:17.917Z,5.71
2022-12-03T18:50:47.769Z,5.59
2022-12-03T18:53:18.669Z,5.55
2022-12-03T18:55:48.611Z,5.54
2022-12-03T18:58:16.603Z,5.55
2022-12-03T19:00:44.714Z,5.57
2022-12-03T19:03:12.982Z,5.57
2022-12-03T19:05:41.096Z,5.53
2022-12-03T19:08:14.852Z,5.45
2022-12-03T19:10:43.531Z,5.26
2022-12-03T19:13:12.015Z,5.13
2022-12-03T19:15:41.043Z,5.04
2022-12-03T19:18:11.491Z,5.02
2022-12-03T19:20:42.227Z,4.99
2022-12-03T19:23:11.689Z,4.96
2022-12-03T19:25:39.953Z,5.00
2022-12-03T19:28:08.376Z,5.09
2022-12-03T19:30:36.431Z,5.25
2022-12-03T19:33:04.416Z,5.37
2022-12-03T19:35:32.792Z,5.42
2022-12-03T19:38:02.207Z,5.47
2022-12-03T19:40:34.972Z,5.53
2022-12-03T19:43:02.956Z,5.58
2022-12-03T19:45:31.010Z,5.56
2022-12-03T19:48:00.441Z,5.60
2022-12-03T19:50:28.516Z,5.62
2022-12-03T19:52:57.185Z,5.63
2022-12-03T19:55:25.161Z,5.59
2022-12-03T19:57:54.587Z,5.54
2022-12-03T20:00:22.943Z,5.52
2022-12-03T20:02:51.213Z,5.50
2022-12-03T20:05:19.358Z,5.49
2022-12-03T20:07:47.479Z,5.51
2022-12-03T20:10:15.628Z,5.54
2022-12-03T20:12:43.783Z,5.55
2022-12-03T20:15:14.440Z,5.56
2022-12-03T20:17:42.502Z,5.55
2022-12-03T20:20:12.420Z,5.49
2022-12-03T20:22:40.706Z,5.48
2022-12-03T20:25:09.480Z,5.53
2022-12-03T20:27:37.722Z,5.57
2022-12-03T20:30:07.145Z,5.63
2022-12-03T20:32:40.648Z,5.70
2022-12-03T20:35:13.001Z,5.60
2022-12-03T20:37:41.013Z,5.54
2022-12-03T20:40:10.346Z,5.50
2022-12-03T20:42:38.525Z,5.43
2022-12-03T20:45:07.853Z,5.39
2022-12-03T20:47:39.996Z,5.32
2022-12-03T20:50:08.975Z,5.28
2022-12-03T20:52:37.023Z,5.31
2022-12-03T20:55:05.363Z,5.33
2022-12-03T20:57:33.481Z,5.34
2022-12-03T21:00:01.602Z,5.33
2022-12-03T21:02:29.639Z,5.31
2022-12-03T21:05:02.133Z,5.30
2022-12-03T21:07:30.228Z,5.28
2022-12-03T21:09:58.337Z,5.31
2022-12-03T21:12:26.400Z,5.33
2022-12-03T21:14:54.433Z,5.35
2022-12-03T21:17:22.483Z,5.37
2022-12-03T21:19:51.937Z,5.37
2022-12-03T21:22:21.586Z,5.36
2022-12-03T21:24:49.581Z,5.41
2022-12-03T21:27:21.787Z,5.39
2022-12-03T21:29:50.231Z,5.42
2022-12-03T21:32:18.575Z,5.44
2022-12-03T21:34:46.702Z,5.50
2022-12-03T21:37:14.793Z,5.54
2022-12-03T21:39:44.884Z,5.57
2022-12-03T21:42:34.919Z,5.59
2022-12-03T21:45:03.858Z,5.58
2022-12-03T21:47:36.926Z,5.53
2022-12-03T21:50:07.586Z,5.49
2022-12-03T21:52:35.758Z,5.49
2022-12-03T21:55:05.843Z,5.49
2022-12-03T21:57:36.893Z,5.47
2022-12-03T22:00:07.741Z,5.45
2022-12-03T22:02:36.256Z,5.45
2022-12-03T22:05:04.389Z,5.45
2022-12-03T22:07:34.163Z,5.47
2022-12-03T22:10:07.742Z,5.49
2022-12-03T22:12:35.738Z,5.48
2022-12-03T22:15:03.875Z,5.51
2022-12-03T22:17:32.267Z,5.57
2022-12-03T22:20:00.264Z,5.63
2022-12-03T22:22:28.307Z,5.62
2022-12-03T22:24:56.405Z,5.62
2022-12-03T22:27:25.918Z,5.62
2022-12-03T22:29:54.184Z,5.58
2022-12-03T22:32:22.400Z,5.53
2022-12-03T22:34:50.647Z,5.54
2022-12-03T22:37:18.682Z,5.49
2022-12-03T22:39:46.723Z,5.42
2022-12-03T22:42:15.051Z,5.34
2022-12-03T22:44:44.622Z,5.27
2022-12-03T22:47:13.063Z,5.23
2022-12-03T22:49:41.126Z,5.22
2022-12-03T22:52:09.570Z,5.23
2022-12-03T22:54:37.572Z,5.23
2022-12-03T22:57:05.566Z,5.25
2022-12-03T22:59:33.651Z,5.24
2022-12-03T23:02:03.136Z,5.22
2022-12-03T23:04:31.182Z,5.22
2022-12-03T23:06:59.323Z,5.29
2022-12-03T23:09:27.438Z,5.34
2022-12-03T23:11:55.488Z,5.46
2022-12-03T23:14:23.552Z,5.55
2022-12-03T23:16:51.573Z,5.62
2022-12-03T23:19:21.119Z,5.67
2022-12-03T23:21:49.201Z,5.71
2022-12-03T23:24:17.274Z,5.76
2022-12-03T23:26:45.262Z,5.78
2022-12-03T23:29:13.447Z,5.77
2022-12-03T23:31:42.934Z,5.78
2022-12-03T23:34:11.040Z,5.75
2022-12-03T23:36:40.638Z,5.76
2022-12-03T23:39:08.942Z,5.73
2022-12-03T23:41:37.074Z,5.70
2022-12-03T23:44:05.115Z,5.68
2022-12-03T23:46:33.435Z,5.65
2022-12-03T23:49:01.513Z,5.62
2022-12-03T23:51:29.553Z,5.61
2022-12-03T23:53:58.992Z,5.58
2022-12-03T23:56:29.976Z,5.56
2022-12-03T23:58:59.196Z,5.59
